Van Metre, South Dakota
Current Conditions -  °F | °C
As of 8:53 PM on Friday 28 Nov 2014 (Local Time) from KPIR Reporting Station
Clear Clear  
Wind Chill: 19°   Ceiling: Unl
Heat Index: 25°   Visibility: 10mi
Dew Point: 22°   Wind: 5mph
Humidity: 88%   Direction: 80°E
Pressure: 29.51"   Gusts: NA
Location:  43.9557°N, 100.703°W
Report Text: KPIR 290253Z AUTO 08004KT 10SM CLR M04/M06 A2951 RMK AO2 SLP017 T10391056 56022
Loading
Personal Weather Stations






























Interactive Weather Map New forecast layout! Learn more

10-Day Weather Forecast

Advertisements
Track Severe Weather on mobile